createdAt,value
2022-11-02T00:01:47.636Z,12.10
2022-11-02T00:04:14.548Z,12.10
2022-11-02T00:06:41.516Z,12.10
2022-11-02T00:09:08.435Z,12.10
2022-11-02T00:11:37.263Z,12.10
2022-11-02T00:14:04.438Z,12.10
2022-11-02T00:16:32.204Z,12.10
2022-11-02T00:19:00.895Z,12.10
2022-11-02T00:21:28.092Z,12.10
2022-11-02T00:23:57.836Z,12.20
2022-11-02T00:26:26.149Z,12.10
2022-11-02T00:28:53.596Z,12.10
2022-11-02T00:31:21.131Z,12.20
2022-11-02T00:33:47.886Z,12.10
2022-11-02T00:36:14.821Z,12.10
2022-11-02T00:38:41.595Z,12.00
2022-11-02T00:41:08.480Z,12.00
2022-11-02T00:43:35.381Z,12.00
2022-11-02T00:46:02.179Z,12.00
2022-11-02T00:48:28.899Z,11.90
2022-11-02T00:50:55.970Z,12.00
2022-11-02T00:53:22.724Z,12.00
2022-11-02T00:55:49.484Z,11.80
2022-11-02T00:58:16.273Z,11.80
2022-11-02T01:00:43.054Z,11.80
2022-11-02T01:03:09.836Z,11.80
2022-11-02T01:05:37.783Z,11.90
2022-11-02T01:08:05.424Z,11.80
2022-11-02T01:10:32.397Z,11.80
2022-11-02T01:12:59.221Z,11.80
2022-11-02T01:15:25.994Z,11.80
2022-11-02T01:17:52.757Z,11.90
2022-11-02T01:20:19.513Z,11.80
2022-11-02T01:22:46.268Z,11.80
2022-11-02T01:25:13.141Z,11.90
2022-11-02T01:27:39.887Z,11.80
2022-11-02T01:30:07.373Z,11.80
2022-11-02T01:32:34.135Z,11.80
2022-11-02T01:35:02.736Z,11.80
2022-11-02T01:37:29.628Z,11.70
2022-11-02T01:39:56.406Z,11.80
2022-11-02T01:42:28.504Z,11.80
2022-11-02T01:44:55.309Z,11.80
2022-11-02T01:47:35.443Z,11.80
2022-11-02T01:50:11.563Z,11.80
2022-11-02T01:52:39.616Z,11.80
2022-11-02T01:55:19.320Z,11.80
2022-11-02T01:57:51.927Z,11.80
2022-11-02T02:00:19.252Z,11.80
2022-11-02T02:02:51.341Z,11.80
2022-11-02T02:05:20.659Z,11.80
2022-11-02T02:07:48.211Z,11.80
2022-11-02T02:10:15.002Z,11.90
2022-11-02T02:12:43.184Z,12.00
2022-11-02T02:15:11.710Z,11.90
2022-11-02T02:17:44.694Z,11.90
2022-11-02T02:20:38.337Z,12.00
2022-11-02T02:23:26.873Z,12.10
2022-11-02T02:26:25.868Z,12.10
2022-11-02T02:28:59.907Z,12.10
2022-11-02T02:31:41.969Z,12.20
2022-11-02T02:34:17.768Z,12.00
2022-11-02T02:36:57.956Z,12.10
2022-11-02T02:39:45.209Z,12.10
2022-11-02T02:42:17.318Z,12.10
2022-11-02T02:44:52.562Z,12.20
2022-11-02T02:47:24.272Z,12.10
2022-11-02T02:49:55.998Z,12.00
2022-11-02T02:52:26.501Z,12.00
2022-11-02T02:54:56.999Z,12.10
2022-11-02T02:57:27.752Z,12.00
2022-11-02T02:59:55.138Z,12.00
2022-11-02T03:02:27.283Z,11.90
2022-11-02T03:04:54.348Z,11.90
2022-11-02T03:07:31.221Z,11.80
2022-11-02T03:10:10.120Z,11.80
2022-11-02T03:12:46.800Z,11.80
2022-11-02T03:15:25.660Z,11.80
2022-11-02T03:18:33.559Z,11.70
2022-11-02T03:21:13.516Z,11.70
2022-11-02T03:23:46.536Z,11.70
2022-11-02T03:26:17.940Z,11.70
2022-11-02T03:28:53.909Z,11.70
2022-11-02T03:31:20.632Z,11.60
2022-11-02T03:33:58.249Z,11.60
2022-11-02T03:36:39.804Z,11.60
2022-11-02T03:39:09.408Z,11.60
2022-11-02T03:41:39.217Z,11.60
2022-11-02T03:44:11.151Z,11.60
2022-11-02T03:46:40.500Z,11.60
2022-11-02T03:49:10.721Z,11.60
2022-11-02T03:51:41.894Z,11.60
2022-11-02T03:54:35.272Z,11.60
2022-11-02T03:57:07.469Z,11.60
2022-11-02T03:59:34.222Z,11.60
2022-11-02T04:02:01.936Z,11.60
2022-11-02T04:04:28.939Z,11.50
2022-11-02T04:06:56.503Z,11.50
2022-11-02T04:09:23.300Z,11.50
2022-11-02T04:12:08.621Z,11.40
2022-11-02T04:14:38.283Z,11.60
2022-11-02T04:17:24.951Z,11.50
2022-11-02T04:19:51.836Z,11.50
2022-11-02T04:22:37.953Z,11.50
2022-11-02T04:25:20.793Z,11.50
2022-11-02T04:27:52.111Z,11.50
2022-11-02T04:30:21.836Z,11.50
2022-11-02T04:33:08.818Z,11.50
2022-11-02T04:35:37.535Z,11.50
2022-11-02T04:38:22.937Z,11.50
2022-11-02T04:41:09.659Z,11.50
2022-11-02T04:43:36.479Z,11.40
2022-11-02T04:46:03.279Z,11.50
2022-11-02T04:48:30.129Z,11.50
2022-11-02T04:50:58.400Z,11.50
2022-11-02T04:53:25.178Z,11.50
2022-11-02T04:55:51.902Z,11.60
2022-11-02T04:58:18.645Z,11.50
2022-11-02T05:00:45.446Z,11.50
2022-11-02T05:03:12.660Z,11.50
2022-11-02T05:05:39.853Z,11.50
2022-11-02T05:08:07.108Z,11.60
2022-11-02T05:10:34.097Z,11.60
2022-11-02T05:13:01.516Z,11.60
2022-11-02T05:15:28.519Z,11.60
2022-11-02T05:17:55.345Z,11.60
2022-11-02T05:20:22.234Z,11.70
2022-11-02T05:22:48.985Z,11.70
2022-11-02T05:25:16.019Z,11.80
2022-11-02T05:27:42.788Z,11.80
2022-11-02T05:30:10.176Z,11.80
2022-11-02T05:32:36.931Z,11.80
2022-11-02T05:35:04.266Z,11.80
2022-11-02T05:37:31.040Z,11.70
2022-11-02T05:39:58.617Z,11.80
2022-11-02T05:42:25.896Z,11.80
2022-11-02T05:44:52.660Z,11.80
2022-11-02T05:47:19.652Z,11.70
2022-11-02T05:49:46.422Z,11.70
2022-11-02T05:52:13.317Z,11.70
2022-11-02T05:54:40.086Z,11.70
2022-11-02T05:57:06.992Z,11.70
2022-11-02T05:59:33.720Z,11.60
2022-11-02T06:02:00.596Z,11.60
2022-11-02T06:04:27.557Z,11.50
2022-11-02T06:06:54.379Z,11.50
2022-11-02T06:09:21.099Z,11.50
2022-11-02T06:11:47.895Z,11.50
2022-11-02T06:14:14.718Z,11.50
2022-11-02T06:16:41.533Z,11.60
2022-11-02T06:19:08.379Z,11.60
2022-11-02T06:21:35.177Z,11.60
2022-11-02T06:24:01.943Z,11.50
2022-11-02T06:26:28.723Z,11.50
2022-11-02T06:28:55.512Z,11.50
2022-11-02T06:31:22.278Z,11.50
2022-11-02T06:33:49.141Z,11.50
2022-11-02T06:36:15.898Z,11.50
2022-11-02T06:38:42.669Z,11.50
2022-11-02T06:41:10.352Z,11.50
2022-11-02T06:43:38.443Z,11.50
2022-11-02T06:46:06.139Z,11.50
2022-11-02T06:48:35.481Z,11.50
2022-11-02T06:51:04.084Z,11.60
2022-11-02T06:53:31.057Z,11.60
2022-11-02T06:55:59.868Z,11.60
2022-11-02T06:58:26.820Z,11.60
2022-11-02T07:01:02.134Z,11.60
2022-11-02T07:03:30.199Z,11.60
2022-11-02T07:05:57.293Z,11.70
2022-11-02T07:08:24.501Z,11.70
2022-11-02T07:10:51.511Z,11.60
2022-11-02T07:13:18.615Z,11.70
2022-11-02T07:15:45.482Z,11.70
2022-11-02T07:18:13.237Z,11.60
2022-11-02T07:20:40.261Z,11.70
2022-11-02T07:23:07.344Z,11.70
2022-11-02T07:25:34.705Z,11.70
2022-11-02T07:28:02.454Z,11.70
2022-11-02T07:30:30.881Z,11.70
2022-11-02T07:32:57.821Z,11.70
2022-11-02T07:35:25.223Z,11.80
2022-11-02T07:37:56.887Z,11.80
2022-11-02T07:40:23.647Z,11.80
2022-11-02T07:42:50.608Z,11.90
2022-11-02T07:45:17.415Z,12.00
2022-11-02T07:47:45.340Z,12.00
2022-11-02T07:50:20.865Z,12.00
2022-11-02T07:52:49.715Z,12.10
2022-11-02T07:55:18.720Z,12.10
2022-11-02T07:57:58.876Z,12.10
2022-11-02T08:00:27.660Z,12.10
2022-11-02T08:02:56.046Z,12.20
2022-11-02T08:05:23.038Z,12.30
2022-11-02T08:08:04.587Z,12.20
2022-11-02T08:10:35.569Z,12.30
2022-11-02T08:13:08.726Z,12.30
2022-11-02T08:15:35.563Z,12.20
2022-11-02T08:18:13.881Z,12.20
2022-11-02T08:20:40.787Z,12.20
2022-11-02T08:23:08.846Z,12.20
2022-11-02T08:25:36.221Z,12.30
2022-11-02T08:28:04.598Z,12.30
2022-11-02T08:30:32.730Z,12.30
2022-11-02T08:33:08.012Z,12.40
2022-11-02T08:35:37.511Z,12.60
2022-11-02T08:38:05.092Z,12.70
2022-11-02T08:40:33.441Z,12.70
2022-11-02T08:43:04.793Z,12.80
2022-11-02T08:46:08.562Z,12.70
2022-11-02T08:48:19.731Z,12.70
2022-11-02T08:50:48.870Z,12.80
2022-11-02T08:53:15.623Z,12.80
2022-11-02T08:55:42.361Z,12.80
2022-11-02T08:58:09.446Z,12.80
2022-11-02T09:00:36.355Z,12.90
2022-11-02T09:03:10.354Z,13.20
2022-11-02T09:05:43.450Z,13.70
2022-11-02T09:08:16.921Z,13.90
2022-11-02T09:10:44.757Z,13.90
2022-11-02T09:13:14.017Z,13.70
2022-11-02T09:15:41.309Z,13.70
2022-11-02T09:18:09.599Z,13.60
2022-11-02T09:20:37.252Z,13.50
2022-11-02T09:23:04.116Z,13.50
2022-11-02T09:25:30.886Z,13.60
2022-11-02T09:27:58.404Z,13.80
2022-11-02T09:30:26.654Z,13.90
2022-11-02T09:32:55.348Z,14.00
2022-11-02T09:35:22.263Z,14.10
2022-11-02T09:37:50.987Z,14.00
2022-11-02T09:40:23.132Z,14.00
2022-11-02T09:43:01.541Z,13.90
2022-11-02T09:45:30.516Z,13.70
2022-11-02T09:48:22.059Z,13.50
2022-11-02T09:51:07.720Z,13.40
2022-11-02T09:54:17.707Z,13.30
2022-11-02T09:56:46.267Z,13.20
2022-11-02T09:59:15.482Z,13.20
2022-11-02T10:02:19.995Z,13.20
2022-11-02T10:04:55.420Z,13.20
2022-11-02T10:07:40.935Z,13.40
2022-11-02T10:10:16.710Z,13.50
2022-11-02T10:13:16.782Z,13.50
2022-11-02T10:15:52.672Z,13.60
2022-11-02T10:18:26.434Z,13.70
2022-11-02T10:21:12.368Z,13.60
2022-11-02T10:23:43.327Z,13.60
2022-11-02T10:26:29.656Z,13.50
2022-11-02T10:29:04.531Z,13.40
2022-11-02T10:31:34.129Z,13.30
2022-11-02T10:34:19.190Z,13.20
2022-11-02T10:37:17.446Z,13.10
2022-11-02T10:40:15.631Z,13.10
2022-11-02T10:43:20.356Z,13.20
2022-11-02T10:46:11.325Z,13.60
2022-11-02T10:48:38.106Z,13.70
2022-11-02T10:51:12.397Z,13.70
2022-11-02T10:53:47.897Z,13.70
2022-11-02T10:56:30.615Z,13.60
2022-11-02T10:59:09.788Z,13.70
2022-11-02T11:01:36.797Z,13.90
2022-11-02T11:04:04.971Z,13.90
2022-11-02T11:06:43.250Z,13.90
2022-11-02T11:09:19.761Z,14.00
2022-11-02T11:11:58.405Z,13.70
2022-11-02T11:20:24.501Z,13.40
2022-11-02T11:23:16.939Z,13.20
2022-11-02T11:25:53.040Z,13.00
2022-11-02T11:28:42.743Z,12.90
2022-11-02T11:31:17.147Z,12.90
2022-11-02T11:33:48.552Z,12.80
2022-11-02T11:36:30.856Z,12.90
2022-11-02T11:39:01.351Z,12.80
2022-11-02T11:41:30.845Z,12.70
2022-11-02T11:43:58.624Z,12.50
2022-11-02T11:46:41.299Z,12.50
2022-11-02T11:49:36.054Z,12.50
2022-11-02T11:52:17.387Z,12.50
2022-11-02T11:54:53.273Z,12.50
2022-11-02T11:57:24.796Z,12.40
2022-11-02T11:59:53.099Z,12.40
2022-11-02T12:02:44.317Z,12.20
2022-11-02T12:05:20.835Z,12.00
2022-11-02T12:07:57.055Z,12.00
2022-11-02T12:10:36.189Z,11.90
2022-11-02T12:13:06.370Z,11.70
2022-11-02T12:16:00.907Z,11.60
2022-11-02T12:18:33.346Z,11.50
2022-11-02T12:21:25.803Z,11.40
2022-11-02T12:24:04.723Z,11.30
2022-11-02T12:26:40.996Z,11.20
2022-11-02T12:29:23.434Z,11.20
2022-11-02T12:32:09.711Z,11.10
2022-11-02T12:34:52.896Z,11.10
2022-11-02T12:37:54.231Z,11.10
2022-11-02T12:43:21.511Z,10.90
2022-11-02T12:46:09.097Z,10.90
2022-11-02T12:49:00.041Z,11.00
2022-11-02T12:51:58.617Z,10.80
2022-11-02T12:54:45.593Z,10.90
2022-11-02T12:57:16.481Z,11.00
2022-11-02T12:59:45.152Z,10.90
2022-11-02T13:02:15.159Z,10.90
2022-11-02T13:04:54.385Z,10.90
2022-11-02T13:07:34.788Z,11.00
2022-11-02T13:10:07.833Z,11.00
2022-11-02T13:12:37.624Z,11.20
2022-11-02T13:15:10.850Z,11.00
2022-11-02T13:17:47.644Z,11.00
2022-11-02T13:20:33.627Z,11.10
2022-11-02T13:23:16.965Z,11.00
2022-11-02T13:25:58.730Z,11.00
2022-11-02T13:28:35.128Z,11.00
2022-11-02T13:31:08.591Z,10.90
2022-11-02T13:33:47.718Z,10.90
2022-11-02T13:36:15.012Z,11.00
2022-11-02T13:38:48.876Z,10.90
2022-11-02T13:41:44.933Z,10.90
2022-11-02T13:44:48.868Z,11.00
2022-11-02T13:47:33.663Z,11.00
2022-11-02T13:50:03.708Z,11.10
2022-11-02T13:52:52.160Z,11.00
2022-11-02T13:55:47.092Z,11.00
2022-11-02T13:58:36.825Z,11.10
2022-11-02T14:01:08.157Z,11.20
2022-11-02T14:04:01.734Z,11.30
2022-11-02T14:06:32.124Z,11.30
2022-11-02T14:09:11.241Z,11.30
2022-11-02T14:11:40.843Z,11.20
2022-11-02T14:14:18.386Z,11.10
2022-11-02T14:16:51.254Z,11.10
2022-11-02T14:19:20.083Z,11.10
2022-11-02T14:21:59.603Z,11.00
2022-11-02T14:24:36.183Z,11.00
2022-11-02T14:27:11.966Z,10.90
2022-11-02T14:29:47.492Z,10.90
2022-11-02T14:32:17.249Z,10.80
2022-11-02T14:34:51.104Z,10.90
2022-11-02T14:38:05.922Z,10.80
2022-11-02T14:41:20.958Z,10.80
2022-11-02T14:44:21.690Z,10.70
2022-11-02T14:46:53.295Z,10.70
2022-11-02T14:49:30.111Z,10.60
2022-11-02T14:52:22.823Z,10.60
2022-11-02T14:55:19.482Z,10.60
2022-11-02T14:58:00.338Z,10.60
2022-11-02T15:00:54.340Z,10.80
2022-11-02T15:03:24.243Z,10.70
2022-11-02T15:06:17.790Z,10.80
2022-11-02T15:08:55.257Z,10.80
2022-11-02T15:11:50.204Z,10.70
2022-11-02T15:14:36.618Z,10.70
2022-11-02T15:17:24.607Z,10.60
2022-11-02T15:19:57.903Z,10.60
2022-11-02T15:22:35.840Z,10.50
2022-11-02T15:25:26.658Z,10.60
2022-11-02T15:27:57.186Z,10.50
2022-11-02T15:30:28.345Z,10.50
2022-11-02T15:33:06.016Z,10.50
2022-11-02T15:35:39.076Z,10.50
2022-11-02T15:38:30.539Z,10.50
2022-11-02T15:41:28.370Z,10.60
2022-11-02T15:44:13.534Z,10.60
2022-11-02T15:46:53.641Z,10.50
2022-11-02T15:49:23.592Z,10.40
2022-11-02T15:52:03.236Z,10.40
2022-11-02T15:54:51.917Z,10.50
2022-11-02T15:58:10.439Z,10.40
2022-11-02T16:00:37.346Z,10.30
2022-11-02T16:03:09.468Z,10.20
2022-11-02T16:05:47.673Z,10.20
2022-11-02T16:08:23.924Z,10.30
2022-11-02T16:11:02.832Z,10.30
2022-11-02T16:13:48.763Z,10.20
2022-11-02T16:16:20.989Z,10.30
2022-11-02T16:18:52.797Z,10.10
2022-11-02T16:21:21.472Z,10.10
2022-11-02T16:23:55.605Z,10.10
2022-11-02T16:26:25.871Z,10.10
2022-11-02T16:28:58.577Z,10.10
2022-11-02T16:31:31.052Z,10.10
2022-11-02T16:34:10.427Z,10.00
2022-11-02T16:36:37.768Z,10.00
2022-11-02T16:39:30.362Z,10.00
2022-11-02T16:41:59.330Z,10.00
2022-11-02T16:44:31.631Z,10.00
2022-11-02T16:47:08.057Z,10.00
2022-11-02T16:49:49.199Z,10.10
2022-11-02T16:52:20.136Z,10.20
2022-11-02T16:54:47.091Z,10.20
2022-11-02T16:57:24.044Z,10.10
2022-11-02T16:59:55.574Z,10.10
2022-11-02T17:02:31.299Z,10.10
2022-11-02T17:05:02.438Z,10.10
2022-11-02T17:07:40.555Z,10.10
2022-11-02T17:10:09.234Z,10.10
2022-11-02T17:12:42.982Z,10.00
2022-11-02T17:15:21.910Z,9.90
2022-11-02T17:17:49.327Z,9.90
2022-11-02T17:20:21.997Z,9.80
2022-11-02T17:22:50.345Z,9.90
2022-11-02T17:25:29.404Z,9.90
2022-11-02T17:27:59.148Z,9.90
2022-11-02T17:30:42.266Z,9.80
2022-11-02T17:33:15.359Z,9.80
2022-11-02T17:35:46.247Z,9.80
2022-11-02T17:38:13.194Z,9.80
2022-11-02T17:40:40.187Z,9.80
2022-11-02T17:43:07.131Z,9.80
2022-11-02T17:45:39.080Z,9.80
2022-11-02T17:48:07.607Z,9.70
2022-11-02T17:50:36.831Z,9.70
2022-11-02T17:53:05.141Z,9.80
2022-11-02T17:55:34.711Z,9.70
2022-11-02T17:58:01.551Z,9.60
2022-11-02T18:00:28.833Z,9.70
2022-11-02T18:02:58.572Z,9.60
2022-11-02T18:05:36.778Z,9.60
2022-11-02T18:08:06.157Z,9.50
2022-11-02T18:10:38.117Z,9.60
2022-11-02T18:13:05.052Z,9.60
2022-11-02T18:15:33.069Z,9.70
2022-11-02T18:18:00.189Z,9.70
2022-11-02T18:20:28.533Z,9.50
2022-11-02T18:22:56.978Z,9.50
2022-11-02T18:25:26.337Z,9.40
2022-11-02T18:27:53.496Z,9.40
2022-11-02T18:30:20.449Z,9.40
2022-11-02T18:32:47.723Z,9.40
2022-11-02T18:35:17.164Z,9.40
2022-11-02T18:37:43.979Z,9.40
2022-11-02T18:40:13.454Z,9.50
2022-11-02T18:42:42.011Z,9.50
2022-11-02T18:45:10.480Z,9.50
2022-11-02T18:47:37.840Z,9.50
2022-11-02T18:50:06.900Z,9.40
2022-11-02T18:52:33.974Z,9.40
2022-11-02T18:55:05.288Z,9.40
2022-11-02T18:57:32.862Z,9.30
2022-11-02T19:00:02.258Z,9.30
2022-11-02T19:02:29.269Z,9.20
2022-11-02T19:04:56.221Z,9.20
2022-11-02T19:07:41.454Z,9.30
2022-11-02T19:10:08.595Z,9.40
2022-11-02T19:12:35.486Z,9.40
2022-11-02T19:15:02.418Z,9.30
2022-11-02T19:17:29.392Z,9.40
2022-11-02T19:19:57.195Z,9.30
2022-11-02T19:22:26.211Z,9.20
2022-11-02T19:24:53.745Z,9.20
2022-11-02T19:27:24.955Z,9.20
2022-11-02T19:29:52.050Z,9.20
2022-11-02T19:32:19.565Z,9.20
2022-11-02T19:34:46.504Z,9.10
2022-11-02T19:37:13.374Z,9.10
2022-11-02T19:39:40.190Z,9.10
2022-11-02T19:42:07.572Z,9.10
2022-11-02T19:44:39.644Z,9.10
2022-11-02T19:47:09.251Z,9.10
2022-11-02T19:49:36.114Z,9.10
2022-11-02T19:52:02.897Z,9.10
2022-11-02T19:54:29.757Z,9.10
2022-11-02T19:56:56.493Z,9.10
2022-11-02T19:59:23.389Z,9.10
2022-11-02T20:01:50.999Z,9.10
2022-11-02T20:04:18.078Z,9.00
2022-11-02T20:06:45.066Z,9.00
2022-11-02T20:09:17.285Z,9.00
2022-11-02T20:11:45.325Z,9.10
2022-11-02T20:14:13.893Z,9.10
2022-11-02T20:16:41.008Z,9.00
2022-11-02T20:19:09.169Z,9.00
2022-11-02T20:21:41.558Z,9.00
2022-11-02T20:24:10.555Z,9.10
2022-11-02T20:26:39.182Z,9.00
2022-11-02T20:29:06.818Z,9.10
2022-11-02T20:31:38.915Z,9.10
2022-11-02T20:34:08.448Z,9.10
2022-11-02T20:36:35.906Z,9.00
2022-11-02T20:39:04.984Z,9.00
2022-11-02T20:41:32.543Z,9.00
2022-11-02T20:43:59.516Z,9.00
2022-11-02T20:46:39.058Z,9.00
2022-11-02T20:49:20.843Z,9.00
2022-11-02T20:51:55.088Z,9.00
2022-11-02T20:54:22.488Z,9.00
2022-11-02T20:56:53.256Z,9.10
2022-11-02T20:59:20.168Z,9.10
2022-11-02T21:01:47.369Z,9.00
2022-11-02T21:04:20.413Z,9.00
2022-11-02T21:06:49.635Z,9.10
2022-11-02T21:09:16.960Z,9.10
2022-11-02T21:12:02.255Z,9.10
2022-11-02T21:14:29.057Z,9.10
2022-11-02T21:16:55.928Z,9.10
2022-11-02T21:19:22.666Z,9.10
2022-11-02T21:21:49.453Z,9.10
2022-11-02T21:24:16.206Z,9.00
2022-11-02T21:26:42.991Z,9.00
2022-11-02T21:29:10.069Z,9.00
2022-11-02T21:31:36.886Z,9.10
2022-11-02T21:34:03.761Z,9.10
2022-11-02T21:36:30.703Z,9.10
2022-11-02T21:38:58.822Z,9.10
2022-11-02T21:41:28.643Z,9.00
2022-11-02T21:43:55.897Z,9.00
2022-11-02T21:46:25.486Z,9.00
2022-11-02T21:48:52.487Z,9.00
2022-11-02T21:51:21.723Z,9.00
2022-11-02T21:53:50.070Z,9.00
2022-11-02T21:56:22.594Z,9.10
2022-11-02T21:58:49.499Z,9.10
2022-11-02T22:01:40.464Z,9.20
2022-11-02T22:04:08.474Z,9.10
2022-11-02T22:06:37.618Z,9.10
2022-11-02T22:09:06.759Z,9.10
2022-11-02T22:11:34.241Z,9.20
2022-11-02T22:14:01.503Z,9.10
2022-11-02T22:16:29.350Z,9.10
2022-11-02T22:19:01.720Z,9.10
2022-11-02T22:21:34.099Z,9.10
2022-11-02T22:24:01.501Z,9.10
2022-11-02T22:26:30.466Z,9.10
2022-11-02T22:28:59.883Z,9.20
2022-11-02T22:31:35.648Z,9.10
2022-11-02T22:34:04.489Z,9.10
2022-11-02T22:56:20.318Z,9.20
2022-11-02T22:58:48.335Z,9.20
2022-11-02T23:01:17.478Z,9.20
2022-11-02T23:03:45.020Z,9.20
2022-11-02T23:06:12.560Z,9.10
2022-11-02T23:08:41.980Z,8.90
2022-11-02T23:11:22.097Z,8.80
2022-11-02T23:13:59.435Z,8.90
2022-11-02T23:16:31.954Z,8.90
2022-11-02T23:19:20.418Z,9.00
2022-11-02T23:22:16.334Z,8.90
2022-11-02T23:25:07.274Z,8.90
2022-11-02T23:27:58.868Z,8.90
2022-11-02T23:30:46.629Z,8.80
2022-11-02T23:33:13.939Z,8.80
2022-11-02T23:35:59.376Z,8.80
2022-11-02T23:38:46.172Z,8.80
2022-11-02T23:41:13.135Z,8.80
2022-11-02T23:43:39.963Z,8.90
2022-11-02T23:46:06.799Z,8.90
2022-11-02T23:48:33.635Z,8.90
2022-11-02T23:51:19.375Z,8.90
2022-11-02T23:54:04.938Z,9.00
2022-11-02T23:56:45.544Z,9.00
2022-11-02T23:59:18.682Z,9.00
